createdAt,value
2018-04-27T00:00:01.258Z,2.67
2018-04-27T00:02:29.519Z,2.40
2018-04-27T00:04:57.783Z,3.00
2018-04-27T00:07:25.377Z,3.10
2018-04-27T00:09:53.636Z,2.63
2018-04-27T00:12:21.285Z,2.60
2018-04-27T00:14:48.713Z,2.70
2018-04-27T00:17:16.211Z,3.10
2018-04-27T00:19:43.793Z,3.40
2018-04-27T00:22:12.092Z,3.33
2018-04-27T00:24:39.585Z,3.13
2018-04-27T00:27:07.060Z,3.60
2018-04-27T00:29:35.309Z,3.00
2018-04-27T00:32:02.813Z,3.40
2018-04-27T00:34:31.090Z,3.77
2018-04-27T00:36:59.346Z,3.47
2018-04-27T00:39:27.646Z,2.90
2018-04-27T00:41:55.894Z,3.00
2018-04-27T00:44:24.894Z,2.67
2018-04-27T00:46:52.381Z,3.47
2018-04-27T00:49:19.852Z,2.90
2018-04-27T00:51:47.397Z,3.53
2018-04-27T00:54:14.935Z,3.97
2018-04-27T00:56:43.213Z,3.17
2018-04-27T00:59:11.501Z,3.17
2018-04-27T01:01:39.750Z,3.63
2018-04-27T01:04:07.222Z,3.53
2018-04-27T01:06:35.482Z,3.90
2018-04-27T01:09:03.002Z,3.37
2018-04-27T01:11:30.624Z,2.83
2018-04-27T01:13:58.892Z,3.30
2018-04-27T01:16:26.402Z,3.87
2018-04-27T01:18:53.923Z,3.47
2018-04-27T01:21:22.173Z,3.00
2018-04-27T01:23:49.768Z,3.27
2018-04-27T01:26:18.017Z,3.47
2018-04-27T01:28:46.300Z,3.50
2018-04-27T01:31:14.560Z,3.80
2018-04-27T01:33:43.627Z,3.17
2018-04-27T01:36:11.118Z,4.00
2018-04-27T01:38:38.645Z,3.70
2018-04-27T01:41:06.146Z,4.23
2018-04-27T01:43:33.727Z,3.37
2018-04-27T01:46:01.279Z,3.80
2018-04-27T01:48:29.533Z,3.80
2018-04-27T01:50:57.925Z,3.37
2018-04-27T01:53:26.183Z,3.60
2018-04-27T01:55:54.434Z,3.37
2018-04-27T01:58:21.937Z,4.10
2018-04-27T02:00:50.226Z,3.43
2018-04-27T02:03:18.529Z,4.50
2018-04-27T02:05:46.009Z,4.33
2018-04-27T02:08:13.552Z,3.73
2018-04-27T02:10:41.000Z,4.17
2018-04-27T02:13:08.414Z,4.97
2018-04-27T02:15:36.608Z,4.00
2018-04-27T02:18:04.043Z,4.50
2018-04-27T02:20:32.254Z,4.00
2018-04-27T02:22:59.678Z,3.83
2018-04-27T02:25:27.887Z,4.63
2018-04-27T02:27:55.327Z,5.10
2018-04-27T02:30:22.773Z,4.80
2018-04-27T02:32:50.979Z,4.73
2018-04-27T02:35:18.412Z,5.17
2018-04-27T02:37:45.835Z,4.73
2018-04-27T02:40:13.293Z,5.43
2018-04-27T02:42:40.821Z,4.90
2018-04-27T02:45:08.263Z,5.17
2018-04-27T02:47:35.716Z,5.83
2018-04-27T02:50:03.238Z,5.33
2018-04-27T02:52:31.423Z,5.57
2018-04-27T02:54:59.631Z,5.87
2018-04-27T02:57:27.061Z,5.50
2018-04-27T02:59:54.572Z,5.40
2018-04-27T03:02:21.998Z,5.53
2018-04-27T03:04:49.442Z,5.90
2018-04-27T03:07:16.879Z,5.47
2018-04-27T03:09:45.072Z,5.10
2018-04-27T03:12:12.552Z,5.33
2018-04-27T03:14:39.977Z,5.07
2018-04-27T03:17:07.419Z,4.53
2018-04-27T03:19:35.627Z,5.90
2018-04-27T03:22:03.059Z,5.17
2018-04-27T03:24:31.271Z,5.63
2018-04-27T03:26:58.695Z,6.07
2018-04-27T03:29:26.193Z,5.57
2018-04-27T03:31:53.654Z,5.63
2018-04-27T03:34:21.110Z,5.60
2018-04-27T03:36:48.567Z,5.70
2018-04-27T03:39:16.001Z,6.87
2018-04-27T03:41:43.419Z,6.10
2018-04-27T03:44:11.613Z,5.80
2018-04-27T03:46:39.839Z,6.20
2018-04-27T03:49:07.287Z,6.20
2018-04-27T03:51:34.789Z,7.03
2018-04-27T03:54:02.984Z,5.80
2018-04-27T03:56:30.415Z,5.93
2018-04-27T03:58:58.646Z,6.17
2018-04-27T04:01:37.889Z,6.13
2018-04-27T04:04:17.255Z,6.07
2018-04-27T04:06:45.492Z,5.50
2018-04-27T04:09:12.938Z,6.20
2018-04-27T04:11:40.366Z,6.20
2018-04-27T04:14:08.571Z,6.87
2018-04-27T04:16:35.991Z,6.40
2018-04-27T04:19:04.231Z,6.97
2018-04-27T04:21:31.666Z,6.63
2018-04-27T04:23:59.090Z,5.90
2018-04-27T04:26:26.527Z,6.60
2018-04-27T04:28:54.719Z,5.97
2018-04-27T04:31:22.935Z,6.00
2018-04-27T04:33:50.499Z,6.27
2018-04-27T04:36:17.919Z,6.47
2018-04-27T04:38:45.343Z,6.33
2018-04-27T04:41:12.774Z,5.90
2018-04-27T04:43:40.227Z,6.57
2018-04-27T04:46:07.663Z,5.97
2018-04-27T04:48:35.148Z,6.57
2018-04-27T04:51:02.579Z,6.23
2018-04-27T04:53:30.000Z,5.37
2018-04-27T04:55:58.254Z,6.50
2018-04-27T04:58:25.685Z,6.40
2018-04-27T05:00:53.127Z,6.37
2018-04-27T05:03:20.588Z,6.13
2018-04-27T05:05:48.022Z,5.73
2018-04-27T05:08:15.499Z,6.03
2018-04-27T05:10:43.729Z,5.43
2018-04-27T05:13:11.121Z,5.60
2018-04-27T05:15:38.603Z,5.53
2018-04-27T05:18:17.946Z,4.90
2018-04-27T05:20:45.495Z,5.93
2018-04-27T05:23:12.962Z,5.47
2018-04-27T05:25:40.549Z,5.90
2018-04-27T05:28:07.976Z,4.93
2018-04-27T05:30:35.439Z,5.13
2018-04-27T05:33:04.719Z,5.63
2018-04-27T05:35:32.155Z,4.67
2018-04-27T05:37:59.646Z,5.10
2018-04-27T05:40:27.097Z,5.50
2018-04-27T05:42:54.603Z,4.27
2018-04-27T05:45:22.807Z,5.93
2018-04-27T05:47:50.232Z,4.50
2018-04-27T05:50:18.453Z,4.80
2018-04-27T05:52:45.888Z,4.03
2018-04-27T05:55:13.345Z,4.60
2018-04-27T05:57:40.803Z,3.80
2018-04-27T06:00:08.247Z,3.87
2018-04-27T06:02:35.659Z,4.13
2018-04-27T06:05:03.974Z,4.50
2018-04-27T06:07:31.438Z,4.50
2018-04-27T06:09:58.911Z,4.07
2018-04-27T06:12:26.357Z,4.10
2018-04-27T06:14:53.792Z,3.57
2018-04-27T06:17:21.222Z,3.90
2018-04-27T06:19:48.715Z,3.13
2018-04-27T06:22:16.175Z,3.47
2018-04-27T06:24:43.675Z,3.43
2018-04-27T06:27:11.908Z,3.27
2018-04-27T06:29:39.370Z,3.50
2018-04-27T06:32:06.830Z,3.70
2018-04-27T06:34:34.271Z,3.80
2018-04-27T06:37:01.695Z,3.73
2018-04-27T06:39:29.934Z,3.43
2018-04-27T06:41:57.369Z,4.07
2018-04-27T06:44:24.820Z,4.33
2018-04-27T06:46:52.239Z,3.63
2018-04-27T06:49:20.447Z,3.10
2018-04-27T06:51:47.896Z,3.43
2018-04-27T06:54:15.329Z,3.57
2018-04-27T06:56:43.591Z,3.47
2018-04-27T06:59:11.862Z,3.93
2018-04-27T07:01:39.249Z,4.20
2018-04-27T07:04:06.731Z,3.80
2018-04-27T07:06:34.204Z,3.83
2018-04-27T07:09:01.637Z,4.00
2018-04-27T07:11:29.116Z,3.80
2018-04-27T07:13:56.567Z,4.10
2018-04-27T07:16:24.007Z,4.50
2018-04-27T07:18:51.439Z,4.60
2018-04-27T07:21:18.940Z,3.93
2018-04-27T07:23:46.367Z,6.73
2018-04-27T07:26:14.591Z,3.73
2018-04-27T07:28:42.130Z,3.90
2018-04-27T07:31:09.577Z,5.20
2018-04-27T07:33:37.078Z,4.97
2018-04-27T07:36:04.646Z,4.77
2018-04-27T07:38:32.158Z,4.03
2018-04-27T07:40:59.591Z,4.23
2018-04-27T07:43:27.090Z,5.00
2018-04-27T07:45:54.565Z,4.27
2018-04-27T07:48:22.093Z,5.13
2018-04-27T07:50:49.551Z,5.07
2018-04-27T07:53:16.996Z,5.73
2018-04-27T07:55:44.545Z,4.27
2018-04-27T07:58:11.927Z,5.20
2018-04-27T08:00:39.365Z,6.40
2018-04-27T08:03:06.799Z,5.33
2018-04-27T08:05:34.290Z,4.50
2018-04-27T08:08:01.738Z,5.07
2018-04-27T08:10:29.171Z,5.97
2018-04-27T08:12:57.380Z,5.20
2018-04-27T08:15:24.860Z,5.70
2018-04-27T08:17:52.307Z,4.67
2018-04-27T08:20:19.751Z,4.70
2018-04-27T08:22:47.181Z,4.53
2018-04-27T08:25:14.645Z,5.23
2018-04-27T08:27:42.131Z,4.50
2018-04-27T08:30:09.606Z,4.23
2018-04-27T08:32:37.031Z,3.90
2018-04-27T08:35:04.535Z,4.77
2018-04-27T08:37:32.087Z,3.67
2018-04-27T08:39:59.539Z,4.07
2018-04-27T08:42:27.002Z,3.57
2018-04-27T08:44:54.464Z,2.87
2018-04-27T08:47:21.903Z,2.60
2018-04-27T08:49:49.420Z,3.00
2018-04-27T08:52:16.862Z,2.67
2018-04-27T08:54:45.079Z,3.30
2018-04-27T08:57:12.619Z,3.13
2018-04-27T08:59:42.388Z,2.70
2018-04-27T09:02:09.897Z,2.60
2018-04-27T09:04:37.365Z,2.60
2018-04-27T09:07:04.813Z,2.60
2018-04-27T09:09:32.268Z,2.43
2018-04-27T09:11:59.752Z,2.43
2018-04-27T09:14:27.230Z,2.27
2018-04-27T09:16:54.678Z,2.40
2018-04-27T09:19:22.131Z,2.23
2018-04-27T09:21:49.573Z,2.60
2018-04-27T09:24:17.006Z,3.07
2018-04-27T09:26:44.482Z,3.67
2018-04-27T09:29:11.947Z,3.50
2018-04-27T09:31:39.413Z,2.73
2018-04-27T09:34:06.842Z,2.57
2018-04-27T09:36:34.317Z,3.60
2018-04-27T09:39:01.759Z,2.63
2018-04-27T09:41:29.231Z,2.60
2018-04-27T09:43:56.678Z,2.97
2018-04-27T09:46:24.132Z,2.60
2018-04-27T09:48:51.559Z,2.57
2018-04-27T09:51:19.047Z,2.20
2018-04-27T09:53:46.479Z,2.90
2018-04-27T09:56:13.931Z,2.40
2018-04-27T09:58:42.136Z,3.30
2018-04-27T10:01:09.546Z,2.90
2018-04-27T10:03:37.740Z,2.10
2018-04-27T10:06:05.934Z,2.70
2018-04-27T10:08:33.367Z,3.10
2018-04-27T10:11:01.625Z,2.57
2018-04-27T10:13:28.980Z,2.67
2018-04-27T10:15:57.183Z,2.60
2018-04-27T10:18:24.624Z,2.60
2018-04-27T10:20:52.834Z,2.67
2018-04-27T10:23:20.266Z,2.70
2018-04-27T10:25:48.478Z,2.67
2018-04-27T10:28:15.936Z,2.20
2018-04-27T10:30:43.388Z,2.43
2018-04-27T10:33:10.819Z,2.90
2018-04-27T10:35:38.317Z,2.97
2018-04-27T10:38:05.747Z,2.47
2018-04-27T10:40:33.215Z,2.43
2018-04-27T10:43:00.706Z,2.60
2018-04-27T10:45:28.231Z,2.83
2018-04-27T10:47:55.690Z,3.47
2018-04-27T10:50:23.225Z,2.93
2018-04-27T10:52:51.430Z,2.37
2018-04-27T10:55:18.900Z,2.50
2018-04-27T10:57:46.331Z,3.03
2018-04-27T11:00:13.806Z,3.13
2018-04-27T11:02:43.022Z,2.97
2018-04-27T11:05:10.570Z,2.57
2018-04-27T11:07:38.005Z,3.40
2018-04-27T11:10:05.471Z,3.20
2018-04-27T11:12:32.899Z,2.90
2018-04-27T11:15:00.349Z,2.70
2018-04-27T11:17:28.545Z,3.10
2018-04-27T11:19:55.984Z,3.03
2018-04-27T11:22:23.414Z,2.90
2018-04-27T11:24:51.740Z,3.07
2018-04-27T11:27:19.143Z,3.10
2018-04-27T11:29:46.757Z,2.60
2018-04-27T11:32:14.237Z,2.83
2018-04-27T11:34:41.671Z,3.03
2018-04-27T11:37:09.151Z,2.83
2018-04-27T11:39:36.592Z,3.23
2018-04-27T11:42:04.031Z,3.37
2018-04-27T11:44:31.455Z,2.70
2018-04-27T11:46:59.801Z,3.20
2018-04-27T11:49:27.225Z,3.30
2018-04-27T11:51:54.667Z,3.80
2018-04-27T11:54:22.103Z,3.40
2018-04-27T11:56:49.577Z,2.93
2018-04-27T11:59:17.789Z,3.53
2018-04-27T12:01:45.266Z,3.37
2018-04-27T12:04:12.705Z,3.93
2018-04-27T12:06:40.174Z,3.60
2018-04-27T12:09:07.655Z,3.57
2018-04-27T12:11:35.090Z,4.00
2018-04-27T12:14:02.547Z,3.60
2018-04-27T12:16:29.976Z,3.43
2018-04-27T12:18:57.414Z,3.30
2018-04-27T12:21:24.860Z,3.00
2018-04-27T12:23:53.070Z,3.07
2018-04-27T12:26:20.511Z,3.00
2018-04-27T12:28:47.991Z,3.23
2018-04-27T12:31:15.539Z,4.20
2018-04-27T12:33:42.892Z,3.27
2018-04-27T12:36:10.371Z,3.58
2018-04-27T12:38:37.789Z,3.23
2018-04-27T12:41:05.291Z,4.25
2018-04-27T12:43:32.724Z,4.40
2018-04-27T12:46:00.191Z,3.20
2018-04-27T12:48:27.620Z,4.00
2018-04-27T12:50:55.051Z,3.53
2018-04-27T12:53:22.591Z,4.10
2018-04-27T12:55:50.132Z,3.93
2018-04-27T12:58:18.526Z,3.50
2018-04-27T13:00:45.961Z,3.33
2018-04-27T13:03:13.390Z,3.93
2018-04-27T13:05:40.848Z,3.20
2018-04-27T13:08:08.342Z,3.53
2018-04-27T13:10:35.775Z,3.37
2018-04-27T13:13:03.253Z,3.53
2018-04-27T13:15:30.663Z,3.23
2018-04-27T13:17:58.911Z,3.70
2018-04-27T13:20:27.167Z,4.10
2018-04-27T13:22:54.645Z,3.90
2018-04-27T13:25:22.177Z,3.77
2018-04-27T13:27:49.608Z,3.07
2018-04-27T13:30:17.094Z,2.60
2018-04-27T13:32:44.512Z,2.03
2018-04-27T13:35:11.939Z,2.00
2018-04-27T13:37:40.137Z,2.20
2018-04-27T13:40:08.356Z,2.63
2018-04-27T13:42:35.792Z,2.73
2018-04-27T13:45:03.270Z,2.60
2018-04-27T13:47:30.697Z,2.73
2018-04-27T13:49:58.162Z,2.80
2018-04-27T13:52:25.631Z,2.90
2018-04-27T13:54:53.063Z,2.93
2018-04-27T13:57:20.557Z,3.30
2018-04-27T13:59:48.875Z,3.63
2018-04-27T14:02:16.393Z,3.80
2018-04-27T14:04:43.824Z,3.60
2018-04-27T14:07:12.163Z,3.60
2018-04-27T14:09:40.402Z,4.23
2018-04-27T14:12:07.840Z,4.00
2018-04-27T14:14:35.251Z,3.30
2018-04-27T14:17:02.682Z,3.93
2018-04-27T14:19:30.115Z,4.03
2018-04-27T14:21:57.610Z,3.50
2018-04-27T14:24:25.040Z,4.00
2018-04-27T14:26:52.487Z,4.40
2018-04-27T14:29:19.919Z,3.83
2018-04-27T14:31:47.347Z,4.40
2018-04-27T14:34:14.813Z,4.00
2018-04-27T14:36:43.077Z,4.30
2018-04-27T14:39:10.500Z,3.63
2018-04-27T14:41:37.999Z,3.90
2018-04-27T14:44:05.495Z,4.17
2018-04-27T14:46:32.970Z,4.47
2018-04-27T14:49:00.411Z,3.87
2018-04-27T14:51:28.692Z,3.80
2018-04-27T14:53:56.163Z,3.90
2018-04-27T14:56:23.655Z,3.40
2018-04-27T14:58:51.095Z,4.20
2018-04-27T15:01:18.543Z,4.23
2018-04-27T15:03:45.988Z,4.23
2018-04-27T15:06:13.433Z,3.73
2018-04-27T15:08:40.963Z,4.17
2018-04-27T15:11:09.281Z,4.20
2018-04-27T15:13:36.736Z,3.73
2018-04-27T15:16:04.206Z,3.50
2018-04-27T15:18:31.654Z,4.37
2018-04-27T15:20:59.098Z,3.77
2018-04-27T15:23:26.559Z,4.30
2018-04-27T15:25:53.993Z,4.43
2018-04-27T15:28:21.487Z,4.20
2018-04-27T15:30:48.934Z,4.80
2018-04-27T15:33:16.394Z,4.33
2018-04-27T15:35:43.853Z,4.50
2018-04-27T15:38:11.336Z,4.53
2018-04-27T15:40:38.811Z,4.10
2018-04-27T15:43:06.269Z,4.00
2018-04-27T15:45:33.691Z,4.30
2018-04-27T15:48:01.162Z,3.95
2018-04-27T15:50:28.595Z,4.00
2018-04-27T15:52:56.028Z,2.28
2018-04-27T15:55:23.455Z,3.10
2018-04-27T15:57:51.696Z,2.75
2018-04-27T16:00:19.148Z,2.87
2018-04-27T16:02:46.623Z,2.53
2018-04-27T16:05:14.912Z,2.77
2018-04-27T16:07:43.179Z,2.83
2018-04-27T16:10:10.605Z,3.20
2018-04-27T16:12:38.033Z,3.00
2018-04-27T16:15:05.541Z,3.42
2018-04-27T16:17:33.027Z,3.22
2018-04-27T16:20:00.463Z,2.75
2018-04-27T16:22:27.904Z,3.12
2018-04-27T16:24:55.334Z,3.33
2018-04-27T16:27:22.767Z,3.35
2018-04-27T16:29:50.983Z,4.00
2018-04-27T16:32:18.442Z,3.33
2018-04-27T16:34:45.893Z,3.60
2018-04-27T16:37:13.409Z,4.03
2018-04-27T16:39:41.659Z,6.93
2018-04-27T16:42:09.210Z,3.70
2018-04-27T16:44:36.655Z,3.10
2018-04-27T16:47:04.107Z,4.37
2018-04-27T16:49:31.575Z,3.00
2018-04-27T16:51:59.022Z,2.93
2018-04-27T16:54:26.525Z,3.10
2018-04-27T16:56:53.891Z,3.30
2018-04-27T16:59:22.078Z,3.40
2018-04-27T17:01:49.511Z,2.97
2018-04-27T17:04:16.947Z,3.30
2018-04-27T17:06:44.388Z,2.63
2018-04-27T17:09:11.851Z,2.60
2018-04-27T17:11:39.310Z,3.27
2018-04-27T17:14:06.750Z,3.00
2018-04-27T17:16:34.221Z,2.60
2018-04-27T17:19:01.658Z,2.87
2018-04-27T17:21:29.119Z,2.87
2018-04-27T17:23:56.555Z,2.57
2018-04-27T17:26:23.988Z,2.73
2018-04-27T17:28:52.236Z,2.73
2018-04-27T17:31:19.676Z,3.22
2018-04-27T17:33:47.149Z,2.57
2018-04-27T17:36:14.590Z,2.53
2018-04-27T17:38:42.021Z,2.40
2018-04-27T17:41:09.505Z,2.30
2018-04-27T17:43:36.931Z,3.93
2018-04-27T17:46:04.412Z,2.93
2018-04-27T17:48:31.848Z,3.10
2018-04-27T17:50:59.295Z,2.30
2018-04-27T17:53:27.567Z,2.70
2018-04-27T17:55:54.968Z,2.30
2018-04-27T17:58:22.413Z,2.50
2018-04-27T18:00:49.847Z,2.40
2018-04-27T18:03:17.275Z,2.53
2018-04-27T18:05:45.516Z,2.50
2018-04-27T18:08:12.935Z,2.23
2018-04-27T18:10:40.367Z,1.93
2018-04-27T18:13:08.628Z,2.87
2018-04-27T18:15:36.142Z,2.80
2018-04-27T18:18:03.641Z,3.07
2018-04-27T18:20:31.103Z,2.87
2018-04-27T18:23:00.122Z,3.10
2018-04-27T18:25:27.675Z,2.73
2018-04-27T18:27:54.979Z,3.07
2018-04-27T18:30:22.458Z,3.00
2018-04-27T18:32:49.893Z,2.77
2018-04-27T18:35:17.324Z,2.77
2018-04-27T18:37:44.768Z,2.70
2018-04-27T18:40:12.992Z,2.93
2018-04-27T18:42:40.455Z,3.20
2018-04-27T18:45:07.887Z,3.63
2018-04-27T18:47:35.363Z,3.93
2018-04-27T18:50:02.814Z,4.03
2018-04-27T18:52:30.270Z,4.10
2018-04-27T18:54:57.722Z,3.65
2018-04-27T18:57:25.180Z,3.70
2018-04-27T18:59:52.622Z,3.40
2018-04-27T19:02:20.949Z,3.63
2018-04-27T19:04:49.909Z,4.10
2018-04-27T19:07:20.068Z,3.80
2018-04-27T19:09:48.309Z,3.40
2018-04-27T19:12:15.745Z,3.53
2018-04-27T19:14:43.268Z,3.23
2018-04-27T19:17:14.457Z,3.27
2018-04-27T19:19:41.930Z,3.27
2018-04-27T19:22:09.370Z,3.07
2018-04-27T19:24:47.327Z,2.73
2018-04-27T19:27:15.523Z,3.20
2018-04-27T19:29:42.960Z,3.30
2018-04-27T19:32:11.183Z,3.20
2018-04-27T19:34:38.630Z,3.20
2018-04-27T19:37:06.067Z,3.70
2018-04-27T19:39:33.550Z,3.77
2018-04-27T19:42:00.981Z,3.73
2018-04-27T19:44:28.480Z,3.50
2018-04-27T19:46:55.906Z,3.83
2018-04-27T19:49:23.377Z,3.30
2018-04-27T19:51:50.795Z,3.50
2018-04-27T19:54:18.983Z,3.13
2018-04-27T19:56:46.417Z,4.10
2018-04-27T19:59:14.651Z,3.27
2018-04-27T20:01:42.083Z,3.60
2018-04-27T20:04:09.601Z,3.60
2018-04-27T20:06:37.811Z,4.50
2018-04-27T20:09:05.239Z,3.83
2018-04-27T20:11:32.709Z,3.83
2018-04-27T20:14:00.229Z,4.70
2018-04-27T20:16:36.539Z,4.43
2018-04-27T20:19:03.984Z,4.83
2018-04-27T20:21:31.461Z,4.03
2018-04-27T20:24:03.666Z,4.32
2018-04-27T20:26:31.104Z,4.20
2018-04-27T20:28:58.592Z,3.97
2018-04-27T20:31:26.064Z,4.20
2018-04-27T20:33:53.506Z,3.93
2018-04-27T20:36:21.747Z,4.17
2018-04-27T20:38:49.201Z,3.70
2018-04-27T20:41:17.421Z,4.77
2018-04-27T20:43:46.664Z,4.63
2018-04-27T20:46:14.105Z,4.77
2018-04-27T20:48:41.568Z,6.93
2018-04-27T20:51:09.012Z,6.93
2018-04-27T20:53:57.053Z,6.70
2018-04-27T20:56:25.303Z,6.90
2018-04-27T20:58:53.504Z,6.43
2018-04-27T21:01:20.963Z,6.93
2018-04-27T21:03:48.402Z,8.00
2018-04-27T21:06:16.646Z,6.27
2018-04-27T21:08:44.086Z,7.10
2018-04-27T21:11:11.632Z,8.00
2018-04-27T21:13:39.097Z,8.07
2018-04-27T21:16:06.531Z,7.50
2018-04-27T21:18:34.015Z,7.57
2018-04-27T21:21:01.435Z,7.50
2018-04-27T21:23:28.879Z,9.33
2018-04-27T21:25:56.360Z,9.60
2018-04-27T21:28:25.450Z,9.93
2018-04-27T21:30:52.867Z,7.87
2018-04-27T21:33:35.651Z,6.87
2018-04-27T21:36:03.192Z,6.17
2018-04-27T21:38:49.348Z,6.20
2018-04-27T21:41:17.548Z,7.90
2018-04-27T21:43:44.983Z,8.60
2018-04-27T21:46:13.191Z,9.03
2018-04-27T21:48:40.639Z,8.50
2018-04-27T21:51:08.068Z,8.10
2018-04-27T21:53:36.292Z,8.10
2018-04-27T21:56:03.742Z,8.00
2018-04-27T21:58:31.176Z,7.57
2018-04-27T22:00:58.628Z,8.07
2018-04-27T22:03:26.073Z,7.57
2018-04-27T22:05:57.236Z,7.50
2018-04-27T22:08:32.235Z,8.17
2018-04-27T22:11:00.463Z,8.13
2018-04-27T22:13:30.819Z,7.50
2018-04-27T22:15:58.347Z,12.07
2018-04-27T22:18:25.805Z,11.67
2018-04-27T22:20:54.049Z,13.17
2018-04-27T22:23:24.645Z,12.13
2018-04-27T22:25:52.795Z,8.67
2018-04-27T22:31:27.931Z,12.07
2018-04-27T22:33:56.205Z,10.57
2018-04-27T22:36:30.241Z,8.43
2018-04-27T22:39:19.302Z,8.30
2018-04-27T22:41:56.455Z,8.67
2018-04-27T22:44:23.950Z,9.43
2018-04-27T22:46:54.896Z,9.77
2018-04-27T22:49:22.323Z,9.03
2018-04-27T22:51:49.807Z,7.93
2018-04-27T22:54:37.735Z,7.43
2018-04-27T22:57:14.926Z,7.87
2018-04-27T22:59:42.359Z,6.73
2018-04-27T23:02:19.743Z,7.40
2018-04-27T23:04:53.683Z,6.70
2018-04-27T23:07:24.963Z,6.93
2018-04-27T23:09:54.016Z,7.57
2018-04-27T23:12:21.460Z,6.63
2018-04-27T23:14:51.602Z,8.10
2018-04-27T23:17:19.035Z,7.63
2018-04-27T23:19:49.276Z,8.33
2018-04-27T23:22:28.812Z,8.37
2018-04-27T23:25:12.583Z,8.40
2018-04-27T23:27:40.795Z,7.17
2018-04-27T23:30:08.227Z,7.13
2018-04-27T23:32:36.642Z,6.80
2018-04-27T23:35:04.089Z,6.53
2018-04-27T23:37:31.559Z,6.80
2018-04-27T23:39:59.001Z,6.03
2018-04-27T23:42:26.433Z,5.60
2018-04-27T23:44:54.643Z,6.43
2018-04-27T23:47:22.105Z,6.80
2018-04-27T23:49:49.579Z,7.07
2018-04-27T23:52:17.019Z,7.43
2018-04-27T23:54:44.476Z,6.83
2018-04-27T23:57:11.925Z,6.37
2018-04-27T23:59:40.182Z,5.67
